sensor_id;sensor_type;location;lat;lon;timestamp;pressure;altitude;pressure_sealevel;temperature;humidity
68988;BME280;56038;46.080;11.116;2023-04-07T00:02:22;99398.34;;;9.32;38.74
68988;BME280;56038;46.080;11.116;2023-04-07T00:07:30;99394.03;;;9.31;39.70
68988;BME280;56038;46.080;11.116;2023-04-07T00:12:38;99380.56;;;9.18;39.69
68988;BME280;56038;46.080;11.116;2023-04-07T00:17:40;99380.50;;;9.20;40.51
68988;BME280;56038;46.080;11.116;2023-04-07T00:22:41;99372.88;;;9.14;40.54
68988;BME280;56038;46.080;11.116;2023-04-07T00:27:45;99363.47;;;9.10;40.76
68988;BME280;56038;46.080;11.116;2023-04-07T00:32:46;99363.81;;;8.99;41.46
68988;BME280;56038;46.080;11.116;2023-04-07T00:37:48;99370.78;;;9.00;41.13
68988;BME280;56038;46.080;11.116;2023-04-07T00:42:51;99367.25;;;9.01;40.85
68988;BME280;56038;46.080;11.116;2023-04-07T00:47:55;99360.38;;;8.98;40.79
68988;BME280;56038;46.080;11.116;2023-04-07T00:52:57;99353.16;;;9.07;40.65
68988;BME280;56038;46.080;11.116;2023-04-07T00:58:00;99350.50;;;9.08;40.72
68988;BME280;56038;46.080;11.116;2023-04-07T01:03:08;99350.44;;;9.10;40.90
68988;BME280;56038;46.080;11.116;2023-04-07T01:08:22;99352.41;;;9.03;41.33
68988;BME280;56038;46.080;11.116;2023-04-07T01:13:34;99338.25;;;8.85;41.50
68988;BME280;56038;46.080;11.116;2023-04-07T01:18:38;99338.41;;;8.81;41.59
68988;BME280;56038;46.080;11.116;2023-04-07T01:23:51;99339.16;;;8.84;42.31
68988;BME280;56038;46.080;11.116;2023-04-07T01:29:21;99342.63;;;8.85;42.29
68988;BME280;56038;46.080;11.116;2023-04-07T01:34:26;99340.66;;;8.91;41.34
68988;BME280;56038;46.080;11.116;2023-04-07T01:39:27;99333.84;;;8.87;41.48
68988;BME280;56038;46.080;11.116;2023-04-07T01:44:32;99331.13;;;8.90;41.13
68988;BME280;56038;46.080;11.116;2023-04-07T01:49:35;99334.69;;;8.88;41.51
68988;BME280;56038;46.080;11.116;2023-04-07T01:54:38;99335.00;;;8.79;42.47
68988;BME280;56038;46.080;11.116;2023-04-07T01:59:41;99324.69;;;8.76;42.55
68988;BME280;56038;46.080;11.116;2023-04-07T02:04:48;99323.84;;;8.75;43.01
68988;BME280;56038;46.080;11.116;2023-04-07T02:09:53;99328.94;;;8.78;42.85
68988;BME280;56038;46.080;11.116;2023-04-07T02:14:59;99327.19;;;8.79;42.42
68988;BME280;56038;46.080;11.116;2023-04-07T02:20:02;99325.50;;;8.78;42.27
68988;BME280;56038;46.080;11.116;2023-04-07T02:25:20;99328.16;;;8.76;43.61
68988;BME280;56038;46.080;11.116;2023-04-07T02:30:24;99317.16;;;8.68;42.32
68988;BME280;56038;46.080;11.116;2023-04-07T02:35:26;99306.00;;;8.63;42.31
68988;BME280;56038;46.080;11.116;2023-04-07T02:40:28;99315.41;;;8.68;42.23
68988;BME280;56038;46.080;11.116;2023-04-07T02:45:31;99312.22;;;8.59;42.70
68988;BME280;56038;46.080;11.116;2023-04-07T02:50:33;99323.84;;;8.49;42.96
68988;BME280;56038;46.080;11.116;2023-04-07T03:00:47;99322.94;;;8.50;42.98
68988;BME280;56038;46.080;11.116;2023-04-07T03:05:49;99312.56;;;8.48;43.01
68988;BME280;56038;46.080;11.116;2023-04-07T03:10:53;99314.53;;;8.42;43.36
68988;BME280;56038;46.080;11.116;2023-04-07T03:15:56;99312.72;;;8.16;44.58
68988;BME280;56038;46.080;11.116;2023-04-07T03:20:58;99308.63;;;8.08;44.75
68988;BME280;56038;46.080;11.116;2023-04-07T03:26:01;99315.63;;;8.06;44.87
68988;BME280;56038;46.080;11.116;2023-04-07T03:31:04;99309.69;;;8.01;44.51
68988;BME280;56038;46.080;11.116;2023-04-07T03:36:06;99316.84;;;7.95;44.54
68988;BME280;56038;46.080;11.116;2023-04-07T03:41:08;99314.38;;;7.90;45.19
68988;BME280;56038;46.080;11.116;2023-04-07T03:46:11;99310.84;;;7.93;44.97
68988;BME280;56038;46.080;11.116;2023-04-07T03:51:14;99311.69;;;7.93;45.09
68988;BME280;56038;46.080;11.116;2023-04-07T03:56:16;99310.94;;;7.90;45.10
68988;BME280;56038;46.080;11.116;2023-04-07T04:01:19;99316.41;;;7.80;45.62
68988;BME280;56038;46.080;11.116;2023-04-07T04:06:21;99306.22;;;7.73;45.81
68988;BME280;56038;46.080;11.116;2023-04-07T04:11:23;99310.53;;;7.74;45.53
68988;BME280;56038;46.080;11.116;2023-04-07T04:16:26;99304.69;;;7.66;45.20
68988;BME280;56038;46.080;11.116;2023-04-07T04:21:28;99311.88;;;7.58;45.40
68988;BME280;56038;46.080;11.116;2023-04-07T04:26:30;99312.09;;;7.50;45.60
68988;BME280;56038;46.080;11.116;2023-04-07T04:31:33;99315.72;;;7.44;45.63
68988;BME280;56038;46.080;11.116;2023-04-07T04:36:35;99318.56;;;7.35;45.92
68988;BME280;56038;46.080;11.116;2023-04-07T04:41:37;99320.75;;;7.19;46.26
68988;BME280;56038;46.080;11.116;2023-04-07T04:46:40;99309.31;;;7.25;46.11
68988;BME280;56038;46.080;11.116;2023-04-07T04:51:41;99322.63;;;7.14;47.05
68988;BME280;56038;46.080;11.116;2023-04-07T04:56:43;99327.00;;;7.12;46.71
68988;BME280;56038;46.080;11.116;2023-04-07T05:01:46;99325.38;;;7.08;47.15
68988;BME280;56038;46.080;11.116;2023-04-07T05:06:48;99335.69;;;7.11;47.29
68988;BME280;56038;46.080;11.116;2023-04-07T05:11:50;99338.28;;;7.11;47.39
68988;BME280;56038;46.080;11.116;2023-04-07T05:16:53;99339.47;;;7.00;47.00
68988;BME280;56038;46.080;11.116;2023-04-07T05:21:55;99340.44;;;6.94;47.55
68988;BME280;56038;46.080;11.116;2023-04-07T05:26:56;99348.22;;;6.96;46.92
68988;BME280;56038;46.080;11.116;2023-04-07T05:32:00;99346.22;;;7.05;46.82
68988;BME280;56038;46.080;11.116;2023-04-07T05:37:02;99355.63;;;7.09;46.61
68988;BME280;56038;46.080;11.116;2023-04-07T05:42:03;99356.47;;;7.11;46.95
68988;BME280;56038;46.080;11.116;2023-04-07T05:47:07;99350.88;;;7.25;46.24
68988;BME280;56038;46.080;11.116;2023-04-07T05:52:09;99353.69;;;7.50;45.73
68988;BME280;56038;46.080;11.116;2023-04-07T05:57:10;99352.16;;;7.74;45.65
68988;BME280;56038;46.080;11.116;2023-04-07T06:02:14;99346.25;;;7.97;45.27
68988;BME280;56038;46.080;11.116;2023-04-07T06:07:15;99342.56;;;8.04;45.25
68988;BME280;56038;46.080;11.116;2023-04-07T06:12:17;99344.03;;;8.13;45.25
68988;BME280;56038;46.080;11.116;2023-04-07T06:17:21;99348.91;;;8.23;45.62
68988;BME280;56038;46.080;11.116;2023-04-07T06:22:23;99341.16;;;8.22;45.00
68988;BME280;56038;46.080;11.116;2023-04-07T06:27:25;99348.81;;;8.26;45.14
68988;BME280;56038;46.080;11.116;2023-04-07T06:32:28;99342.50;;;8.33;45.10
68988;BME280;56038;46.080;11.116;2023-04-07T06:37:29;99338.59;;;8.48;44.67
68988;BME280;56038;46.080;11.116;2023-04-07T06:42:32;99337.41;;;8.58;44.65
68988;BME280;56038;46.080;11.116;2023-04-07T06:47:35;99331.88;;;8.69;44.74
68988;BME280;56038;46.080;11.116;2023-04-07T06:52:37;99326.44;;;8.75;44.06
68988;BME280;56038;46.080;11.116;2023-04-07T06:57:39;99328.78;;;8.83;43.75
68988;BME280;56038;46.080;11.116;2023-04-07T07:02:43;99325.59;;;9.24;43.23
68988;BME280;56038;46.080;11.116;2023-04-07T07:07:44;99318.94;;;9.41;43.03
68988;BME280;56038;46.080;11.116;2023-04-07T07:12:46;99312.09;;;9.38;42.85
68988;BME280;56038;46.080;11.116;2023-04-07T07:17:49;99297.69;;;9.51;41.78
68988;BME280;56038;46.080;11.116;2023-04-07T07:22:51;99293.53;;;9.69;41.75
68988;BME280;56038;46.080;11.116;2023-04-07T07:27:53;99283.81;;;9.96;41.35
68988;BME280;56038;46.080;11.116;2023-04-07T07:32:56;99282.66;;;10.27;41.68
68988;BME280;56038;46.080;11.116;2023-04-07T07:37:58;99283.72;;;10.43;40.90
68988;BME280;56038;46.080;11.116;2023-04-07T07:43:00;99280.72;;;10.72;40.46
68988;BME280;56038;46.080;11.116;2023-04-07T07:48:03;99270.28;;;10.93;40.12
68988;BME280;56038;46.080;11.116;2023-04-07T07:53:05;99260.34;;;11.01;39.28
68988;BME280;56038;46.080;11.116;2023-04-07T07:58:08;99269.50;;;11.11;38.81
68988;BME280;56038;46.080;11.116;2023-04-07T08:03:11;99256.91;;;11.19;38.49
68988;BME280;56038;46.080;11.116;2023-04-07T08:08:13;99255.06;;;11.42;38.05
68988;BME280;56038;46.080;11.116;2023-04-07T08:13:14;99252.50;;;11.59;37.86
68988;BME280;56038;46.080;11.116;2023-04-07T08:18:17;99243.31;;;11.69;37.30
68988;BME280;56038;46.080;11.116;2023-04-07T08:23:19;99234.19;;;11.78;37.10
68988;BME280;56038;46.080;11.116;2023-04-07T08:28:22;99233.25;;;11.97;36.90
68988;BME280;56038;46.080;11.116;2023-04-07T08:33:25;99230.97;;;12.09;35.59
68988;BME280;56038;46.080;11.116;2023-04-07T08:38:27;99228.22;;;12.29;35.19
68988;BME280;56038;46.080;11.116;2023-04-07T08:43:29;99211.38;;;12.52;34.96
68988;BME280;56038;46.080;11.116;2023-04-07T08:48:33;99212.03;;;12.73;33.59
68988;BME280;56038;46.080;11.116;2023-04-07T08:53:39;99203.94;;;12.95;33.34
68988;BME280;56038;46.080;11.116;2023-04-07T08:58:42;99200.41;;;13.29;33.59
68988;BME280;56038;46.080;11.116;2023-04-07T09:03:47;99188.38;;;13.56;32.45
68988;BME280;56038;46.080;11.116;2023-04-07T09:08:49;99184.03;;;13.87;32.26
68988;BME280;56038;46.080;11.116;2023-04-07T09:13:51;99175.66;;;14.26;31.33
68988;BME280;56038;46.080;11.116;2023-04-07T09:18:54;99163.50;;;14.69;30.22
68988;BME280;56038;46.080;11.116;2023-04-07T09:23:56;99148.94;;;15.20;29.77
68988;BME280;56038;46.080;11.116;2023-04-07T09:28:59;99147.00;;;15.78;29.06
68988;BME280;56038;46.080;11.116;2023-04-07T09:34:04;99133.19;;;16.01;27.65
68988;BME280;56038;46.080;11.116;2023-04-07T09:39:24;99128.69;;;15.76;29.21
68988;BME280;56038;46.080;11.116;2023-04-07T09:44:26;99130.69;;;15.58;29.57
68988;BME280;56038;46.080;11.116;2023-04-07T09:49:29;99120.56;;;15.52;28.96
68988;BME280;56038;46.080;11.116;2023-04-07T09:54:32;99115.44;;;15.37;27.55
68988;BME280;56038;46.080;11.116;2023-04-07T09:59:36;99099.59;;;15.65;30.00
68988;BME280;56038;46.080;11.116;2023-04-07T10:04:40;99099.91;;;16.00;28.69
68988;BME280;56038;46.080;11.116;2023-04-07T10:09:43;99088.88;;;16.33;27.71
68988;BME280;56038;46.080;11.116;2023-04-07T10:14:45;99082.63;;;16.98;27.47
68988;BME280;56038;46.080;11.116;2023-04-07T10:19:49;99074.91;;;17.08;26.58
68988;BME280;56038;46.080;11.116;2023-04-07T10:24:55;99069.03;;;18.11;24.91
68988;BME280;56038;46.080;11.116;2023-04-07T10:29:59;99060.47;;;18.53;24.58
68988;BME280;56038;46.080;11.116;2023-04-07T10:35:05;99050.13;;;18.62;22.84
68988;BME280;56038;46.080;11.116;2023-04-07T10:40:26;99038.22;;;19.01;20.76
68988;BME280;56038;46.080;11.116;2023-04-07T10:46:01;99033.81;;;19.33;19.90
68988;BME280;56038;46.080;11.116;2023-04-07T10:51:14;99027.69;;;19.76;18.68
68988;BME280;56038;46.080;11.116;2023-04-07T10:56:17;99015.69;;;20.44;20.75
68988;BME280;56038;46.080;11.116;2023-04-07T11:01:19;99008.59;;;20.85;20.55
68988;BME280;56038;46.080;11.116;2023-04-07T11:06:23;98998.75;;;20.15;20.05
68988;BME280;56038;46.080;11.116;2023-04-07T11:11:39;98994.84;;;20.70;17.37
68988;BME280;56038;46.080;11.116;2023-04-07T11:16:42;98978.03;;;20.29;17.57
68988;BME280;56038;46.080;11.116;2023-04-07T11:21:46;98980.09;;;19.95;20.01
68988;BME280;56038;46.080;11.116;2023-04-07T11:26:48;98976.47;;;20.98;20.59
68988;BME280;56038;46.080;11.116;2023-04-07T11:31:50;98967.13;;;20.02;19.41
68988;BME280;56038;46.080;11.116;2023-04-07T11:36:53;98965.75;;;20.28;21.23
68988;BME280;56038;46.080;11.116;2023-04-07T11:41:58;98960.84;;;21.14;20.80
68988;BME280;56038;46.080;11.116;2023-04-07T11:47:01;98950.53;;;21.49;20.82
68988;BME280;56038;46.080;11.116;2023-04-07T11:52:05;98943.19;;;20.93;21.12
68988;BME280;56038;46.080;11.116;2023-04-07T11:57:07;98944.13;;;21.33;21.77
68988;BME280;56038;46.080;11.116;2023-04-07T12:02:29;98943.25;;;20.53;20.45
68988;BME280;56038;46.080;11.116;2023-04-07T12:07:33;98940.97;;;19.88;22.40
68988;BME280;56038;46.080;11.116;2023-04-07T12:12:34;98938.09;;;19.06;23.06
68988;BME280;56038;46.080;11.116;2023-04-07T12:17:37;98939.03;;;18.50;23.16
68988;BME280;56038;46.080;11.116;2023-04-07T12:22:40;98942.78;;;17.57;24.13
68988;BME280;56038;46.080;11.116;2023-04-07T12:27:42;98961.81;;;17.49;24.51
68988;BME280;56038;46.080;11.116;2023-04-07T12:32:44;98947.22;;;17.21;24.98
68988;BME280;56038;46.080;11.116;2023-04-07T12:37:48;98944.78;;;17.18;25.06
68988;BME280;56038;46.080;11.116;2023-04-07T12:42:51;98934.22;;;17.07;25.10
68988;BME280;56038;46.080;11.116;2023-04-07T12:47:52;98936.81;;;16.83;25.42
68988;BME280;56038;46.080;11.116;2023-04-07T12:52:56;98922.06;;;16.81;25.18
68988;BME280;56038;46.080;11.116;2023-04-07T12:57:58;98926.84;;;16.99;25.05
68988;BME280;56038;46.080;11.116;2023-04-07T13:03:00;98913.44;;;16.79;25.34
68988;BME280;56038;46.080;11.116;2023-04-07T13:08:04;98913.25;;;16.56;25.95
68988;BME280;56038;46.080;11.116;2023-04-07T13:13:07;98911.75;;;16.65;25.93
68988;BME280;56038;46.080;11.116;2023-04-07T13:18:08;98903.13;;;16.87;25.62
68988;BME280;56038;46.080;11.116;2023-04-07T13:23:12;98909.66;;;16.94;25.37
68988;BME280;56038;46.080;11.116;2023-04-07T13:28:13;98900.22;;;17.02;25.55
68988;BME280;56038;46.080;11.116;2023-04-07T13:33:17;98890.72;;;16.89;25.20
68988;BME280;56038;46.080;11.116;2023-04-07T13:38:20;98898.69;;;16.76;25.43
68988;BME280;56038;46.080;11.116;2023-04-07T13:43:22;98892.97;;;16.69;24.85
68988;BME280;56038;46.080;11.116;2023-04-07T13:48:24;98885.03;;;17.06;24.65
68988;BME280;56038;46.080;11.116;2023-04-07T13:53:27;98876.56;;;17.93;23.67
68988;BME280;56038;46.080;11.116;2023-04-07T13:58:28;98874.03;;;18.25;23.23
68988;BME280;56038;46.080;11.116;2023-04-07T14:03:30;98883.56;;;18.17;23.16
68988;BME280;56038;46.080;11.116;2023-04-07T14:08:33;98885.44;;;18.26;23.21
68988;BME280;56038;46.080;11.116;2023-04-07T14:13:35;98878.88;;;18.75;22.59
68988;BME280;56038;46.080;11.116;2023-04-07T14:18:37;98881.19;;;18.57;22.83
68988;BME280;56038;46.080;11.116;2023-04-07T14:23:40;98889.47;;;18.75;23.07
68988;BME280;56038;46.080;11.116;2023-04-07T14:28:42;98873.09;;;18.81;22.88
68988;BME280;56038;46.080;11.116;2023-04-07T14:33:44;98879.50;;;18.78;22.76
68988;BME280;56038;46.080;11.116;2023-04-07T14:38:47;98888.53;;;18.53;22.85
68988;BME280;56038;46.080;11.116;2023-04-07T14:43:50;98888.41;;;18.55;23.17
68988;BME280;56038;46.080;11.116;2023-04-07T14:48:55;98877.16;;;17.97;22.86
68988;BME280;56038;46.080;11.116;2023-04-07T14:53:59;98891.69;;;17.23;23.81
68988;BME280;56038;46.080;11.116;2023-04-07T14:59:01;98890.78;;;17.11;24.91
68988;BME280;56038;46.080;11.116;2023-04-07T15:04:03;98886.22;;;17.48;25.59
68988;BME280;56038;46.080;11.116;2023-04-07T15:09:06;98889.78;;;17.01;26.09
68988;BME280;56038;46.080;11.116;2023-04-07T15:14:08;98893.28;;;16.65;26.27
68988;BME280;56038;46.080;11.116;2023-04-07T15:19:10;98880.78;;;16.19;27.25
68988;BME280;56038;46.080;11.116;2023-04-07T15:24:13;98894.41;;;15.75;27.50
68988;BME280;56038;46.080;11.116;2023-04-07T15:29:15;98900.16;;;15.42;27.84
68988;BME280;56038;46.080;11.116;2023-04-07T15:34:16;98890.38;;;15.31;27.53
68988;BME280;56038;46.080;11.116;2023-04-07T15:39:19;98901.72;;;15.19;27.94
68988;BME280;56038;46.080;11.116;2023-04-07T15:44:21;98902.16;;;14.98;28.02
68988;BME280;56038;46.080;11.116;2023-04-07T15:49:23;98910.66;;;14.89;28.22
68988;BME280;56038;46.080;11.116;2023-04-07T15:54:26;98918.16;;;14.95;27.74
68988;BME280;56038;46.080;11.116;2023-04-07T15:59:28;98918.69;;;14.74;27.90
68988;BME280;56038;46.080;11.116;2023-04-07T16:04:30;98919.59;;;14.60;28.21
68988;BME280;56038;46.080;11.116;2023-04-07T16:09:33;98914.06;;;14.50;28.32
68988;BME280;56038;46.080;11.116;2023-04-07T16:14:34;98926.53;;;14.32;28.86
68988;BME280;56038;46.080;11.116;2023-04-07T16:19:36;98926.53;;;14.32;28.98
68988;BME280;56038;46.080;11.116;2023-04-07T16:24:39;98928.13;;;14.49;28.71
68988;BME280;56038;46.080;11.116;2023-04-07T16:29:42;98931.59;;;14.50;28.63
68988;BME280;56038;46.080;11.116;2023-04-07T16:34:43;98941.94;;;14.38;28.84
68988;BME280;56038;46.080;11.116;2023-04-07T16:39:46;98937.16;;;14.31;29.10
68988;BME280;56038;46.080;11.116;2023-04-07T16:44:48;98936.03;;;14.21;29.66
68988;BME280;56038;46.080;11.116;2023-04-07T16:49:50;98946.56;;;14.06;29.76
68988;BME280;56038;46.080;11.116;2023-04-07T16:54:53;98947.75;;;14.15;29.81
68988;BME280;56038;46.080;11.116;2023-04-07T16:59:54;98946.06;;;14.14;29.65
68988;BME280;56038;46.080;11.116;2023-04-07T17:04:56;98956.31;;;14.04;30.06
68988;BME280;56038;46.080;11.116;2023-04-07T17:10:00;98962.56;;;14.02;30.25
68988;BME280;56038;46.080;11.116;2023-04-07T17:15:01;98973.06;;;13.88;30.07
68988;BME280;56038;46.080;11.116;2023-04-07T17:20:04;98981.84;;;13.72;30.92
68988;BME280;56038;46.080;11.116;2023-04-07T17:25:08;98982.50;;;13.62;30.76
68988;BME280;56038;46.080;11.116;2023-04-07T17:30:11;98991.44;;;13.43;31.64
68988;BME280;56038;46.080;11.116;2023-04-07T17:35:12;99002.72;;;13.30;31.53
68988;BME280;56038;46.080;11.116;2023-04-07T17:40:16;99009.66;;;13.15;32.18
68988;BME280;56038;46.080;11.116;2023-04-07T17:45:17;99020.06;;;13.01;32.57
68988;BME280;56038;46.080;11.116;2023-04-07T17:50:19;99024.63;;;12.97;32.43
68988;BME280;56038;46.080;11.116;2023-04-07T17:55:22;99040.94;;;12.86;32.72
68988;BME280;56038;46.080;11.116;2023-04-07T18:00:24;99048.88;;;12.69;33.06
68988;BME280;56038;46.080;11.116;2023-04-07T18:05:31;99069.47;;;12.59;33.70
68988;BME280;56038;46.080;11.116;2023-04-07T18:10:38;99063.06;;;12.49;33.86
68988;BME280;56038;46.080;11.116;2023-04-07T18:15:40;99077.38;;;12.42;34.24
68988;BME280;56038;46.080;11.116;2023-04-07T18:20:42;99082.78;;;12.39;34.19
68988;BME280;56038;46.080;11.116;2023-04-07T18:25:45;99086.81;;;12.29;35.62
68988;BME280;56038;46.080;11.116;2023-04-07T18:30:48;99103.59;;;12.25;35.71
68988;BME280;56038;46.080;11.116;2023-04-07T18:35:50;99111.88;;;12.17;35.43
68988;BME280;56038;46.080;11.116;2023-04-07T18:40:53;99113.72;;;12.15;35.27
68988;BME280;56038;46.080;11.116;2023-04-07T18:45:55;99120.00;;;12.11;35.84
68988;BME280;56038;46.080;11.116;2023-04-07T18:50:56;99127.94;;;12.10;35.21
68988;BME280;56038;46.080;11.116;2023-04-07T18:55:59;99132.81;;;12.00;35.81
68988;BME280;56038;46.080;11.116;2023-04-07T19:01:01;99137.66;;;11.90;36.14
68988;BME280;56038;46.080;11.116;2023-04-07T19:06:03;99156.19;;;11.86;36.21
68988;BME280;56038;46.080;11.116;2023-04-07T19:11:06;99145.56;;;11.89;35.68
68988;BME280;56038;46.080;11.116;2023-04-07T19:16:08;99153.97;;;11.77;36.33
68988;BME280;56038;46.080;11.116;2023-04-07T19:21:10;99157.53;;;11.76;35.88
68988;BME280;56038;46.080;11.116;2023-04-07T19:26:14;99165.03;;;11.64;36.13
68988;BME280;56038;46.080;11.116;2023-04-07T19:31:16;99177.25;;;11.64;35.93
68988;BME280;56038;46.080;11.116;2023-04-07T19:36:18;99173.88;;;11.62;36.18
68988;BME280;56038;46.080;11.116;2023-04-07T19:41:22;99178.41;;;11.58;36.57
68988;BME280;56038;46.080;11.116;2023-04-07T19:46:23;99191.06;;;11.49;36.77
68988;BME280;56038;46.080;11.116;2023-04-07T19:51:25;99195.59;;;11.45;37.03
68988;BME280;56038;46.080;11.116;2023-04-07T19:56:29;99209.66;;;11.43;36.61
68988;BME280;56038;46.080;11.116;2023-04-07T20:01:30;99218.69;;;11.35;38.17
68988;BME280;56038;46.080;11.116;2023-04-07T20:06:32;99222.53;;;11.28;37.00
68988;BME280;56038;46.080;11.116;2023-04-07T20:11:37;99220.81;;;11.27;36.91
68988;BME280;56038;46.080;11.116;2023-04-07T20:16:38;99220.28;;;11.21;37.35
68988;BME280;56038;46.080;11.116;2023-04-07T20:21:40;99221.13;;;11.21;37.36
68988;BME280;56038;46.080;11.116;2023-04-07T20:26:43;99218.91;;;11.12;36.70
68988;BME280;56038;46.080;11.116;2023-04-07T20:31:45;99225.34;;;11.05;37.14
68988;BME280;56038;46.080;11.116;2023-04-07T20:36:47;99233.44;;;10.99;37.91
68988;BME280;56038;46.080;11.116;2023-04-07T20:41:50;99241.25;;;10.99;37.52
68988;BME280;56038;46.080;11.116;2023-04-07T20:46:52;99245.44;;;11.03;37.66
68988;BME280;56038;46.080;11.116;2023-04-07T20:51:53;99249.38;;;10.93;38.45
68988;BME280;56038;46.080;11.116;2023-04-07T20:56:57;99254.94;;;10.85;37.89
68988;BME280;56038;46.080;11.116;2023-04-07T21:01:59;99259.31;;;10.85;37.44
68988;BME280;56038;46.080;11.116;2023-04-07T21:07:01;99266.97;;;10.89;38.09
68988;BME280;56038;46.080;11.116;2023-04-07T21:12:04;99263.38;;;10.92;37.86
68988;BME280;56038;46.080;11.116;2023-04-07T21:17:06;99266.69;;;10.95;37.35
68988;BME280;56038;46.080;11.116;2023-04-07T21:22:07;99266.84;;;10.92;37.86
68988;BME280;56038;46.080;11.116;2023-04-07T21:27:14;99283.34;;;10.93;38.82
68988;BME280;56038;46.080;11.116;2023-04-07T21:32:16;99277.72;;;10.82;39.48
68988;BME280;56038;46.080;11.116;2023-04-07T21:37:18;99277.28;;;10.92;38.09
68988;BME280;56038;46.080;11.116;2023-04-07T21:42:21;99279.63;;;10.98;37.95
68988;BME280;56038;46.080;11.116;2023-04-07T21:47:23;99284.00;;;10.98;38.13
68988;BME280;56038;46.080;11.116;2023-04-07T21:52:25;99290.16;;;10.97;38.85
68988;BME280;56038;46.080;11.116;2023-04-07T21:57:28;99293.03;;;10.91;38.25
68988;BME280;56038;46.080;11.116;2023-04-07T22:02:29;99283.50;;;10.90;38.40
68988;BME280;56038;46.080;11.116;2023-04-07T22:07:31;99287.97;;;10.86;38.63
68988;BME280;56038;46.080;11.116;2023-04-07T22:12:34;99286.28;;;10.85;38.57
68988;BME280;56038;46.080;11.116;2023-04-07T22:17:36;99295.66;;;10.91;38.57
68988;BME280;56038;46.080;11.116;2023-04-07T22:22:39;99295.72;;;10.89;38.93
68988;BME280;56038;46.080;11.116;2023-04-07T22:27:42;99301.81;;;10.88;39.14
68988;BME280;56038;46.080;11.116;2023-04-07T22:32:44;99298.50;;;10.85;39.32
68988;BME280;56038;46.080;11.116;2023-04-07T22:37:47;99300.97;;;10.88;39.38
68988;BME280;56038;46.080;11.116;2023-04-07T22:42:50;99297.44;;;10.89;40.11
68988;BME280;56038;46.080;11.116;2023-04-07T22:47:51;99291.56;;;10.84;40.35
68988;BME280;56038;46.080;11.116;2023-04-07T22:52:53;99296.75;;;10.85;39.35
68988;BME280;56038;46.080;11.116;2023-04-07T22:57:56;99298.56;;;10.83;39.70
68988;BME280;56038;46.080;11.116;2023-04-07T23:02:58;99294.31;;;10.80;40.16
68988;BME280;56038;46.080;11.116;2023-04-07T23:08:00;99309.09;;;10.82;40.20
68988;BME280;56038;46.080;11.116;2023-04-07T23:13:03;99309.88;;;10.84;39.28
68988;BME280;56038;46.080;11.116;2023-04-07T23:18:04;99316.44;;;10.72;40.18
68988;BME280;56038;46.080;11.116;2023-04-07T23:23:06;99316.13;;;10.59;39.62
68988;BME280;56038;46.080;11.116;2023-04-07T23:28:09;99328.63;;;10.51;40.36
68988;BME280;56038;46.080;11.116;2023-04-07T23:33:11;99330.47;;;10.49;40.23
68988;BME280;56038;46.080;11.116;2023-04-07T23:38:13;99332.59;;;10.39;40.55
68988;BME280;56038;46.080;11.116;2023-04-07T23:43:16;99324.81;;;10.38;40.74
68988;BME280;56038;46.080;11.116;2023-04-07T23:48:17;99329.38;;;10.33;41.39
68988;BME280;56038;46.080;11.116;2023-04-07T23:53:19;99318.38;;;10.25;41.51
68988;BME280;56038;46.080;11.116;2023-04-07T23:58:22;99322.72;;;10.26;41.30
